KMNN

Marion Municipal Airport

Marion, Ohio, USA
METAR KMNN 221453Z AUTO 24009KT 7SM BKN015 OVC024 23/19 A3004 RMK AO2 SLP168 T02280194 51001 $
Observed Flight Rules
May-22 @ 14:53 UTC (39 minutes ago) Marginal Visual Flight Rules
Wind Visibility Clouds
240° at 9 knots 7 miles
  • Broken at 1,500' AGL
  • Overcast at 2,400' AGL
Temperatures Readings
Current 23°C / 73°F
Dewpoint 19°C / 66°F
Humidity 78%
Altimeter 30.04" Hg
Pressure 1016.8 hPa
Elevation 301
METAR KMNN 221453Z AUTO 24009KT 7SM BKN015 OVC024 23/19 A3004 RMK AO2 SLP168 T02280194 51001 $
Observed Flight Rules
May-22 @ 14:53 UTC
(39 minutes ago)
MVFR
Wind Visibility
240° at 9 knots 7 miles
Clouds
  • Broken at 1,500' AGL
  • Overcast at 2,400' AGL
Temperature Dewpoint
23°C / 73°F 19°C / 66°F
Humidity Altimeter Pressure
78% 30.04" Hg 1016.8 hPa